createdAt,value
2023-02-07T00:02:01.676Z,4.07
2023-02-07T00:04:32.575Z,3.72
2023-02-07T00:07:00.444Z,3.85
2023-02-07T00:09:28.000Z,4.40
2023-02-07T00:11:55.564Z,3.15
2023-02-07T00:14:26.294Z,3.33
2023-02-07T00:16:56.802Z,3.92
2023-02-07T00:19:26.746Z,3.97
2023-02-07T00:21:54.477Z,3.30
2023-02-07T00:24:22.380Z,3.42
2023-02-07T00:26:52.400Z,4.28
2023-02-07T00:29:20.049Z,2.47
2023-02-07T00:31:48.208Z,3.03
2023-02-07T00:34:16.303Z,3.78
2023-02-07T00:36:44.394Z,3.60
2023-02-07T00:39:14.943Z,4.53
2023-02-07T00:41:43.869Z,4.03
2023-02-07T00:44:11.980Z,4.20
2023-02-07T00:46:40.440Z,3.85
2023-02-07T00:49:08.083Z,3.15
2023-02-07T00:51:35.844Z,3.58
2023-02-07T00:54:04.378Z,3.63
2023-02-07T00:56:35.089Z,4.00
2023-02-07T00:59:02.999Z,3.67
2023-02-07T01:01:31.099Z,4.00
2023-02-07T01:03:58.713Z,5.00
2023-02-07T01:06:28.108Z,3.40
2023-02-07T01:08:58.613Z,3.65
2023-02-07T01:11:28.862Z,3.90
2023-02-07T01:13:58.862Z,4.20
2023-02-07T01:16:36.688Z,4.20
2023-02-07T01:19:07.301Z,4.03
2023-02-07T01:21:35.270Z,3.33
2023-02-07T01:24:05.995Z,4.05
2023-02-07T01:26:36.096Z,3.83
2023-02-07T01:29:04.028Z,3.85
2023-02-07T01:31:31.752Z,4.55
2023-02-07T01:34:00.614Z,3.13
2023-02-07T01:36:29.981Z,4.07
2023-02-07T01:39:01.238Z,3.47
2023-02-07T01:41:29.044Z,4.10
2023-02-07T01:44:05.334Z,4.50
2023-02-07T01:46:34.757Z,4.60
2023-02-07T01:49:15.091Z,4.70
2023-02-07T01:51:51.819Z,4.78
2023-02-07T01:54:22.003Z,5.13
2023-02-07T01:56:55.122Z,4.38
2023-02-07T01:59:24.424Z,3.72
2023-02-07T02:01:52.292Z,4.72
2023-02-07T02:04:20.330Z,4.18
2023-02-07T02:06:48.261Z,4.63
2023-02-07T02:09:18.387Z,5.25
2023-02-07T02:12:19.008Z,4.80
2023-02-07T02:15:18.643Z,4.43
2023-02-07T02:18:16.195Z,5.22
2023-02-07T02:21:02.419Z,4.40
2023-02-07T02:23:33.970Z,5.22
2023-02-07T02:26:45.938Z,5.00
2023-02-07T02:29:38.786Z,4.93
2023-02-07T02:32:28.027Z,6.50
2023-02-07T02:35:20.548Z,4.40
2023-02-07T02:38:00.314Z,5.22
2023-02-07T02:40:49.491Z,5.20
2023-02-07T02:43:21.448Z,5.45
2023-02-07T02:45:58.881Z,5.75
2023-02-07T02:48:29.766Z,4.05
2023-02-07T02:50:58.226Z,4.43
2023-02-07T02:53:29.530Z,4.13
2023-02-07T02:56:16.037Z,5.10
2023-02-07T02:59:06.614Z,6.07
2023-02-07T03:01:46.780Z,5.50
2023-02-07T03:04:49.450Z,4.72
2023-02-07T03:07:47.444Z,5.88
2023-02-07T03:10:32.908Z,5.03
2023-02-07T03:13:20.760Z,5.85
2023-02-07T03:16:30.938Z,6.30
2023-02-07T03:19:16.592Z,5.45
2023-02-07T03:22:06.430Z,6.47
2023-02-07T03:24:54.401Z,5.72
2023-02-07T03:27:34.849Z,5.68
2023-02-07T03:30:14.973Z,5.80
2023-02-07T03:32:54.440Z,5.22
2023-02-07T03:35:33.270Z,5.38
2023-02-07T03:38:03.284Z,6.03
2023-02-07T03:40:41.001Z,6.63
2023-02-07T03:43:39.662Z,5.45
2023-02-07T03:46:11.003Z,4.90
2023-02-07T03:48:53.248Z,7.15
2023-02-07T03:51:47.332Z,5.25
2023-02-07T03:54:23.024Z,5.28
2023-02-07T03:56:53.987Z,6.32
2023-02-07T03:59:21.979Z,6.30
2023-02-07T04:02:00.634Z,6.30
2023-02-07T04:04:45.928Z,6.03
2023-02-07T04:07:43.905Z,5.57
2023-02-07T04:10:19.839Z,4.80
2023-02-07T04:12:52.617Z,5.72
2023-02-07T04:15:27.942Z,5.05
2023-02-07T04:18:09.780Z,6.30
2023-02-07T04:20:46.420Z,5.00
2023-02-07T04:23:32.579Z,6.82
2023-02-07T04:26:01.744Z,5.78
2023-02-07T04:28:30.389Z,5.35
2023-02-07T04:31:01.430Z,5.55
2023-02-07T04:36:35.467Z,5.40
2023-02-07T04:39:04.033Z,5.20
2023-02-07T04:41:34.522Z,5.80
2023-02-07T04:44:04.984Z,6.80
2023-02-07T04:46:33.213Z,5.95
2023-02-07T04:49:01.247Z,6.35
2023-02-07T04:51:34.173Z,5.90
2023-02-07T04:54:02.275Z,5.90
2023-02-07T04:56:38.302Z,6.68
2023-02-07T04:59:09.207Z,5.72
2023-02-07T05:01:38.438Z,5.82
2023-02-07T05:04:11.521Z,6.82
2023-02-07T05:06:42.092Z,6.00
2023-02-07T05:09:13.565Z,6.75
2023-02-07T05:11:49.085Z,6.65
2023-02-07T05:14:18.401Z,5.85
2023-02-07T05:16:54.132Z,5.00
2023-02-07T05:19:31.479Z,5.50
2023-02-07T05:22:19.800Z,5.82
2023-02-07T05:25:10.798Z,7.35
2023-02-07T05:27:55.737Z,7.15
2023-02-07T05:31:06.844Z,5.70
2023-02-07T05:34:06.263Z,6.70
2023-02-07T05:37:05.770Z,6.50
2023-02-07T05:40:14.205Z,5.75
2023-02-07T05:46:28.258Z,7.35
2023-02-07T05:49:05.374Z,7.47
2023-02-07T05:57:32.284Z,7.70
2023-02-07T05:59:59.769Z,6.72
2023-02-07T06:02:27.222Z,6.90
2023-02-07T06:04:54.748Z,6.43
2023-02-07T06:07:22.126Z,6.70
2023-02-07T06:09:49.619Z,6.55
2023-02-07T06:12:17.025Z,7.32
2023-02-07T06:14:44.412Z,8.27
2023-02-07T06:17:11.836Z,7.28
2023-02-07T06:19:39.315Z,5.80
2023-02-07T06:22:06.826Z,6.97
2023-02-07T06:24:34.320Z,7.82
2023-02-07T06:27:01.680Z,6.53
2023-02-07T06:29:29.112Z,7.38
2023-02-07T06:31:56.928Z,7.70
2023-02-07T06:34:24.377Z,6.43
2023-02-07T06:36:51.941Z,7.78
2023-02-07T06:39:19.458Z,7.47
2023-02-07T06:41:46.936Z,7.25
2023-02-07T06:44:14.523Z,6.95
2023-02-07T06:46:41.937Z,7.20
2023-02-07T06:49:10.444Z,7.05
2023-02-07T06:51:37.875Z,8.70
2023-02-07T06:54:09.681Z,7.88
2023-02-07T06:56:38.039Z,7.50
2023-02-07T06:59:05.807Z,7.28
2023-02-07T07:01:33.287Z,6.82
2023-02-07T07:04:00.814Z,5.88
2023-02-07T07:06:28.279Z,5.90
2023-02-07T07:08:58.135Z,7.28
2023-02-07T07:11:28.709Z,7.75
2023-02-07T07:13:56.354Z,7.75
2023-02-07T07:16:23.968Z,6.68
2023-02-07T07:18:51.621Z,7.28
2023-02-07T07:21:19.149Z,6.60
2023-02-07T07:23:47.425Z,5.82
2023-02-07T07:26:14.933Z,7.47
2023-02-07T07:28:42.356Z,8.80
2023-02-07T07:31:10.033Z,7.80
2023-02-07T07:33:37.608Z,6.82
2023-02-07T07:36:08.061Z,7.05
2023-02-07T07:41:04.871Z,7.32
2023-02-07T07:43:32.361Z,7.05
2023-02-07T07:46:01.205Z,8.02
2023-02-07T07:48:28.936Z,8.30
2023-02-07T07:50:56.846Z,7.65
2023-02-07T07:53:24.304Z,9.10
2023-02-07T07:55:53.832Z,8.27
2023-02-07T07:58:22.803Z,9.15
2023-02-07T08:00:51.035Z,7.65
2023-02-07T08:03:20.173Z,9.43
2023-02-07T08:05:47.807Z,8.45
2023-02-07T08:08:16.159Z,8.00
2023-02-07T08:10:43.688Z,7.97
2023-02-07T08:13:11.127Z,9.27
2023-02-07T08:15:39.420Z,8.52
2023-02-07T08:18:06.887Z,9.85
2023-02-07T08:20:34.683Z,9.20
2023-02-07T08:23:02.260Z,8.80
2023-02-07T08:25:29.717Z,9.57
2023-02-07T08:27:57.245Z,9.25
2023-02-07T08:30:24.823Z,8.43
2023-02-07T08:32:52.467Z,9.55
2023-02-07T08:35:19.958Z,8.10
2023-02-07T08:37:47.457Z,10.20
2023-02-07T08:40:14.858Z,9.35
2023-02-07T08:42:42.310Z,9.13
2023-02-07T08:45:10.037Z,9.43
2023-02-07T08:47:37.560Z,7.20
2023-02-07T08:50:06.293Z,9.32
2023-02-07T08:52:33.791Z,9.18
2023-02-07T08:55:01.327Z,9.50
2023-02-07T08:57:28.702Z,10.02
2023-02-07T08:59:56.208Z,9.35
2023-02-07T09:02:23.763Z,9.75
2023-02-07T09:04:51.796Z,9.07
2023-02-07T09:07:19.897Z,9.23
2023-02-07T09:09:47.594Z,9.10
2023-02-07T09:12:15.105Z,9.95
2023-02-07T09:14:42.670Z,8.18
2023-02-07T09:17:10.304Z,8.60
2023-02-07T09:19:37.858Z,9.45
2023-02-07T09:22:05.531Z,8.65
2023-02-07T09:24:33.059Z,9.20
2023-02-07T09:27:01.446Z,9.77
2023-02-07T09:29:28.924Z,8.98
2023-02-07T09:31:56.427Z,8.15
2023-02-07T09:34:24.011Z,7.55
2023-02-07T09:36:51.603Z,8.18
2023-02-07T09:39:19.673Z,9.07
2023-02-07T09:42:16.055Z,8.35
2023-02-07T09:44:54.383Z,8.00
2023-02-07T09:47:24.570Z,8.10
2023-02-07T09:50:08.232Z,9.27
2023-02-07T09:52:41.123Z,8.60
2023-02-07T09:55:41.048Z,8.52
2023-02-07T09:58:14.835Z,6.57
2023-02-07T10:00:46.557Z,6.85
2023-02-07T10:03:22.879Z,6.80
2023-02-07T10:06:12.521Z,6.30
2023-02-07T10:08:48.839Z,6.82
2023-02-07T10:11:46.287Z,5.22
2023-02-07T10:14:42.817Z,5.70
2023-02-07T10:17:35.829Z,6.32
2023-02-07T10:20:22.846Z,6.15
2023-02-07T10:23:29.602Z,6.32
2023-02-07T10:26:02.976Z,6.70
2023-02-07T10:28:51.988Z,7.38
2023-02-07T10:31:21.315Z,6.22
2023-02-07T10:34:03.110Z,5.78
2023-02-07T10:36:34.359Z,5.78
2023-02-07T10:39:36.470Z,7.53
2023-02-07T10:42:03.968Z,7.00
2023-02-07T10:44:31.818Z,6.32
2023-02-07T10:47:04.303Z,6.32
2023-02-07T10:49:34.930Z,6.05
2023-02-07T10:52:25.528Z,6.65
2023-02-07T10:54:56.360Z,5.93
2023-02-07T10:57:25.382Z,5.85
2023-02-07T11:00:07.074Z,6.07
2023-02-07T11:03:03.433Z,5.35
2023-02-07T11:05:34.593Z,4.35
2023-02-07T11:08:22.925Z,5.57
2023-02-07T11:10:53.260Z,5.05
2023-02-07T11:13:24.176Z,5.07
2023-02-07T11:16:02.817Z,4.93
2023-02-07T11:18:42.841Z,5.43
2023-02-07T11:21:24.495Z,5.53
2023-02-07T11:23:55.861Z,5.35
2023-02-07T11:26:24.664Z,5.35
2023-02-07T11:28:54.333Z,4.88
2023-02-07T11:31:30.256Z,5.53
2023-02-07T11:34:11.225Z,5.57
2023-02-07T11:36:39.172Z,4.75
2023-02-07T11:39:16.899Z,5.05
2023-02-07T11:41:55.900Z,5.03
2023-02-07T11:44:26.110Z,5.30
2023-02-07T11:46:56.327Z,4.78
2023-02-07T11:49:33.208Z,4.90
2023-02-07T11:52:02.920Z,4.35
2023-02-07T11:54:31.865Z,3.92
2023-02-07T11:57:14.641Z,4.65
2023-02-07T11:59:52.063Z,4.55
2023-02-07T12:02:30.082Z,4.78
2023-02-07T12:05:19.500Z,5.55
2023-02-07T12:07:54.796Z,4.45
2023-02-07T12:10:25.947Z,4.22
2023-02-07T12:13:02.556Z,5.38
2023-02-07T12:15:37.178Z,4.75
2023-02-07T12:21:02.345Z,5.10
2023-02-07T12:23:49.392Z,4.90
2023-02-07T12:26:20.632Z,5.03
2023-02-07T12:29:12.311Z,4.80
2023-02-07T12:31:42.647Z,3.65
2023-02-07T12:34:33.247Z,3.80
2023-02-07T12:37:11.968Z,4.70
2023-02-07T12:39:50.737Z,4.70
2023-02-07T12:42:48.316Z,4.90
2023-02-07T12:45:54.804Z,4.65
2023-02-07T12:49:09.737Z,4.60
2023-02-07T12:58:43.561Z,4.32
2023-02-07T13:01:49.524Z,4.72
2023-02-07T13:04:36.279Z,4.32
2023-02-07T13:07:19.742Z,4.95
2023-02-07T13:09:56.532Z,4.30
2023-02-07T13:12:59.723Z,4.00
2023-02-07T13:16:03.488Z,4.28
2023-02-07T13:18:52.104Z,3.33
2023-02-07T13:21:46.104Z,3.95
2023-02-07T13:24:21.876Z,3.53
2023-02-07T13:26:57.261Z,3.92
2023-02-07T13:29:27.383Z,3.72
2023-02-07T13:31:59.582Z,3.38
2023-02-07T13:34:29.689Z,3.58
2023-02-07T13:37:02.859Z,3.63
2023-02-07T13:43:20.207Z,3.60
2023-02-07T13:49:47.951Z,3.53
2023-02-07T13:52:52.267Z,3.70
2023-02-07T13:55:38.749Z,2.38
2023-02-07T13:58:54.226Z,2.88
2023-02-07T14:01:32.415Z,3.10
2023-02-07T14:04:12.793Z,3.10
2023-02-07T14:06:53.323Z,3.17
2023-02-07T14:09:39.395Z,2.25
2023-02-07T14:12:17.755Z,2.70
2023-02-07T14:15:00.344Z,2.85
2023-02-07T14:17:29.160Z,2.90
2023-02-07T14:19:58.191Z,3.03
2023-02-07T14:22:51.813Z,2.63
2023-02-07T14:25:39.496Z,2.28
2023-02-07T14:28:31.614Z,2.70
2023-02-07T14:31:19.577Z,2.92
2023-02-07T14:34:14.725Z,2.95
2023-02-07T14:36:43.209Z,2.50
2023-02-07T14:39:13.817Z,2.70
2023-02-07T14:41:43.277Z,3.42
2023-02-07T14:44:26.100Z,3.88
2023-02-07T14:46:57.935Z,3.30
2023-02-07T14:49:33.742Z,2.88
2023-02-07T14:52:08.398Z,3.08
2023-02-07T14:57:56.917Z,3.03
2023-02-07T15:00:28.787Z,3.25
2023-02-07T15:03:06.273Z,2.80
2023-02-07T15:05:37.257Z,3.38
2023-02-07T15:08:07.829Z,3.25
2023-02-07T15:10:46.532Z,3.15
2023-02-07T15:13:24.902Z,2.67
2023-02-07T15:16:04.170Z,3.33
2023-02-07T15:18:36.105Z,3.28
2023-02-07T15:21:04.304Z,3.35
2023-02-07T15:23:32.723Z,2.88
2023-02-07T15:26:07.772Z,3.65
2023-02-07T15:28:36.105Z,3.30
2023-02-07T15:31:14.664Z,3.35
2023-02-07T15:33:54.911Z,3.10
2023-02-07T15:36:34.885Z,3.50
2023-02-07T15:39:07.332Z,3.38
2023-02-07T15:41:35.942Z,3.40
2023-02-07T15:44:06.396Z,3.33
2023-02-07T15:46:53.847Z,3.38
2023-02-07T15:49:25.598Z,2.88
2023-02-07T15:51:55.020Z,3.45
2023-02-07T15:54:23.882Z,3.03
2023-02-07T15:56:58.607Z,3.33
2023-02-07T15:59:30.064Z,2.65
2023-02-07T16:02:00.422Z,3.35
2023-02-07T16:04:30.625Z,4.45
2023-02-07T16:07:07.965Z,3.67
2023-02-07T16:09:41.369Z,3.22
2023-02-07T16:12:55.421Z,3.47
2023-02-07T16:15:33.950Z,3.50
2023-02-07T16:18:03.685Z,3.80
2023-02-07T16:20:35.099Z,3.60
2023-02-07T16:23:06.753Z,3.28
2023-02-07T16:25:36.483Z,3.47
2023-02-07T16:28:12.308Z,3.70
2023-02-07T16:30:41.590Z,3.50
2023-02-07T16:33:13.722Z,3.60
2023-02-07T16:35:41.473Z,3.58
2023-02-07T16:38:08.973Z,3.65
2023-02-07T16:40:36.578Z,3.15
2023-02-07T16:43:06.699Z,3.63
2023-02-07T16:45:34.534Z,4.25
2023-02-07T16:48:02.009Z,3.63
2023-02-07T16:50:31.008Z,3.92
2023-02-07T16:53:00.776Z,3.58
2023-02-07T16:55:29.095Z,4.20
2023-02-07T16:57:57.623Z,3.38
2023-02-07T17:00:26.403Z,3.63
2023-02-07T17:02:54.353Z,4.10
2023-02-07T17:05:25.082Z,3.72
2023-02-07T17:07:52.742Z,4.03
2023-02-07T17:10:27.750Z,3.50
2023-02-07T17:12:55.288Z,4.60
2023-02-07T17:15:24.555Z,3.95
2023-02-07T17:17:53.857Z,4.22
2023-02-07T17:20:33.310Z,4.15
2023-02-07T17:23:01.446Z,3.97
2023-02-07T17:25:31.651Z,4.15
2023-02-07T17:28:00.343Z,4.65
2023-02-07T17:30:40.203Z,3.53
2023-02-07T17:33:09.376Z,3.70
2023-02-07T17:39:01.310Z,3.35
2023-02-07T17:41:37.697Z,3.83
2023-02-07T17:44:22.867Z,4.88
2023-02-07T17:46:55.542Z,4.00
2023-02-07T17:49:23.737Z,4.40
2023-02-07T17:51:54.889Z,4.85
2023-02-07T17:54:30.147Z,4.30
2023-02-07T17:57:06.300Z,4.55
2023-02-07T17:59:35.854Z,4.50
2023-02-07T18:02:10.816Z,4.57
2023-02-07T18:04:58.084Z,5.03
2023-02-07T18:07:32.136Z,4.20
2023-02-07T18:10:07.196Z,4.30
2023-02-07T18:12:38.517Z,4.85
2023-02-07T18:15:10.182Z,4.38
2023-02-07T18:17:51.168Z,5.38
2023-02-07T18:20:24.491Z,4.97
2023-02-07T18:22:54.717Z,3.85
2023-02-07T18:25:26.724Z,4.93
2023-02-07T18:28:09.245Z,4.57
2023-02-07T18:30:39.590Z,5.38
2023-02-07T18:33:13.463Z,4.78
2023-02-07T18:46:26.913Z,4.65
2023-02-07T18:52:19.578Z,5.47
2023-02-07T19:02:08.577Z,5.28
2023-02-07T19:04:36.529Z,4.47
2023-02-07T19:07:05.707Z,5.47
2023-02-07T19:09:34.223Z,4.30
2023-02-07T19:12:01.686Z,5.88
2023-02-07T19:17:43.698Z,4.95
2023-02-07T19:20:17.375Z,5.43
2023-02-07T19:22:52.816Z,5.57
2023-02-07T19:25:23.358Z,5.70
2023-02-07T19:27:56.482Z,6.45
2023-02-07T19:33:46.388Z,6.22
2023-02-07T19:39:49.107Z,5.85
2023-02-07T19:45:51.752Z,7.15
2023-02-07T19:48:22.481Z,7.57
2023-02-07T19:51:01.360Z,8.02
2023-02-07T19:53:30.083Z,7.57
2023-02-07T19:56:08.919Z,6.78
2023-02-07T19:58:37.906Z,7.72
2023-02-07T20:01:05.617Z,7.43
2023-02-07T20:03:33.477Z,6.32
2023-02-07T20:06:09.810Z,6.60
2023-02-07T20:08:41.873Z,7.35
2023-02-07T20:11:13.037Z,6.55
2023-02-07T20:13:46.203Z,7.45
2023-02-07T20:16:16.697Z,6.20
2023-02-07T20:18:46.739Z,7.53
2023-02-07T20:21:16.648Z,6.95
2023-02-07T20:23:46.836Z,7.13
2023-02-07T20:26:38.577Z,7.00
2023-02-07T20:29:10.056Z,7.43
2023-02-07T20:31:38.279Z,6.10
2023-02-07T20:34:07.114Z,6.47
2023-02-07T20:36:40.939Z,5.63
2023-02-07T20:39:14.421Z,5.82
2023-02-07T20:41:43.341Z,6.15
2023-02-07T20:44:15.195Z,6.53
2023-02-07T20:46:46.388Z,5.97
2023-02-07T20:49:17.462Z,7.13
2023-02-07T20:51:45.798Z,5.63
2023-02-07T20:54:13.467Z,6.53
2023-02-07T20:56:42.074Z,5.75
2023-02-07T20:59:15.937Z,6.07
2023-02-07T21:01:43.551Z,6.10
2023-02-07T21:04:11.080Z,6.63
2023-02-07T21:06:39.198Z,6.57
2023-02-07T21:09:07.706Z,5.68
2023-02-07T21:11:47.833Z,6.72
2023-02-07T21:14:30.232Z,6.53
2023-02-07T21:17:01.429Z,6.45
2023-02-07T21:19:29.318Z,5.60
2023-02-07T21:21:56.840Z,6.43
2023-02-07T21:24:24.888Z,6.40
2023-02-07T21:26:54.205Z,5.47
2023-02-07T21:29:22.484Z,6.72
2023-02-07T21:31:50.607Z,6.38
2023-02-07T21:34:21.232Z,6.05
2023-02-07T21:36:49.680Z,5.68
2023-02-07T21:39:17.557Z,5.53
2023-02-07T21:41:46.525Z,6.10
2023-02-07T21:44:15.974Z,6.20
2023-02-07T21:46:46.760Z,5.88
2023-02-07T21:52:37.014Z,6.82
2023-02-07T21:55:08.643Z,6.72
2023-02-07T22:00:40.613Z,5.88
2023-02-07T22:03:08.573Z,5.70
2023-02-07T22:05:36.452Z,6.30
2023-02-07T22:08:14.327Z,6.25
2023-02-07T22:10:45.089Z,6.95
2023-02-07T22:13:13.753Z,6.15
2023-02-07T22:15:46.752Z,6.70
2023-02-07T22:18:15.071Z,6.25
2023-02-07T22:20:43.914Z,6.95
2023-02-07T22:23:11.726Z,5.50
2023-02-07T22:25:41.006Z,6.40
2023-02-07T22:28:09.869Z,6.05
2023-02-07T22:30:40.799Z,7.28
2023-02-07T22:33:10.196Z,6.28
2023-02-07T22:35:39.872Z,5.55
2023-02-07T22:38:08.943Z,6.45
2023-02-07T22:40:38.156Z,9.00
2023-02-07T22:43:14.419Z,8.68
2023-02-07T22:45:45.984Z,10.35
2023-02-07T22:48:15.975Z,9.63
2023-02-07T22:50:44.043Z,9.95
2023-02-07T22:53:12.070Z,11.95
2023-02-07T22:55:41.852Z,11.65
2023-02-07T22:58:11.546Z,8.93
2023-02-07T23:00:40.116Z,9.95
2023-02-07T23:03:08.035Z,7.82
2023-02-07T23:05:39.740Z,7.10
2023-02-07T23:08:07.598Z,6.82
2023-02-07T23:10:35.057Z,6.80
2023-02-07T23:13:02.767Z,5.18
2023-02-07T23:15:30.444Z,7.07
2023-02-07T23:17:58.199Z,6.50
2023-02-07T23:20:25.866Z,7.75
2023-02-07T23:22:53.326Z,7.85
2023-02-07T23:25:21.047Z,6.35
2023-02-07T23:27:48.746Z,7.68
2023-02-07T23:30:16.304Z,6.88
2023-02-07T23:32:44.133Z,6.55
2023-02-07T23:35:11.692Z,6.47
2023-02-07T23:37:40.499Z,6.85
2023-02-07T23:40:08.672Z,5.53
2023-02-07T23:42:36.347Z,6.88
2023-02-07T23:45:04.440Z,5.68
2023-02-07T23:47:31.924Z,5.72
2023-02-07T23:49:59.484Z,6.82
2023-02-07T23:52:26.894Z,7.80
2023-02-07T23:54:54.830Z,5.90
2023-02-07T23:57:22.327Z,6.18
2023-02-07T23:59:50.136Z,6.47
